KHSB/HSB METAR and TAF weather

Enter ICAO airport designator
Station Type Date Time Source
KHSB METAR 2019/10/23 20:15 UTC NOAA

KHSB 232015Z AUTO 20013G18KT 10SM CLR 20/M03 A3006 RMK AO2 T02041033


Station Type Date Time Source
KHSB Decoded METAR 2019/10/23 20:15 UTC NOAA

Harrisburg, Harrisburg-Raleigh Airport, IL, United States (KHSB) 37-48-41N 088-32-57W
Oct 23, 2019 - 04:15 PM EDT / 2019.10.23 2015 UTC
Wind: from the SSW (200 degrees) at 15 MPH (13 KT) gusting to 21 MPH (18 KT):0
Visibility: 10 mile(s):0
Sky conditions: clear
Temperature: 68.7 F (20.4 C)
Dew Point: 26.1 F (-3.3 C)
Relative Humidity: 19%
Pressure (altimeter): 30.06 in. Hg (1017 hPa)
ob: KHSB 232015Z AUTO 20013G18KT 10SM CLR 20/M03 A3006 RMK AO2 T02041033
cycle: 20

Station Type Date Time Source
KHSB TAF UTC NOAA

Error!

Example: see airport list